Elkmont, Alabama
Current Conditions -  °F | °C
As of 11:53 PM on Tuesday 25 Nov 2014 (Local Time) from KDCU Reporting Station
Clear Clear  
Wind Chill: 36°   Ceiling: Unl
Heat Index: 40°   Visibility: 10mi
Dew Point: 28°   Wind: 6mph
Humidity: 63%   Direction: 290°WNW
Pressure: 30.14"   Gusts: NA
Location:  34.93°N, 86.97°W
Report Text: KDCU 260553Z AUTO 29005KT 10SM CLR 04/M02 A3014 RMK AO2 SLP208 T00441022 10089 20044 401221011 56004
Loading
Personal Weather Stations






























Interactive Weather Map New forecast layout! Learn more

10-Day Weather Forecast

Advertisements
Track Severe Weather on mobile